Latest Weather Observations for Parkes Airport

IDN60801

Issued at 9:04 pm EDT Tuesday 27 January 2015 (issued every 30 minutes, with the page automatically refreshed every 10 minutes)

About weather observations | Map of weather stations | Latest weather observations for NSW | Other Formats
Station Details ID: 065068 Name: PARKES AIRPORT AWS Lat: -33.13 Lon: 148.24 Height: 323.3 m
Data from the previous 72 hours. | See also: Recent months at Parkes Airport
Date/Time
EDT
Temp
°C
App
Temp
°C
Dew
Point
Rel
Hum
%
Delta-T
°C
Wind Press
QNH
hPa
Press
MSL
hPa
Rain
since 9 am
mm
Dir
 
Spd
km/h
Gust
km/h
Spd
kts
Gust
kts
27/09:00pm 21.3 18.8 14.2 64 4.2 E 20 30 11 16 1009.7 1007.9 5.8
27/08:30pm 22.1 19.0 14.5 62 4.5 ENE 24 33 13 18 1009.1 1007.2 5.8
27/08:00pm 22.7 20.6 15.3 63 4.5 NE 20 28 11 15 1008.6 1006.7 5.8
27/07:30pm 22.9 21.5 15.5 63 4.5 ENE 17 22 9 12 1008.7 1006.8 5.8
27/07:00pm 23.7 21.3 15.5 60 5.0 E 22 32 12 17 1008.4 1006.5 5.8
27/06:30pm 23.6 20.7 15.1 59 5.1 E 24 32 13 17 1008.0 1006.1 5.8
27/06:00pm 24.0 22.2 16.0 61 4.9 ENE 20 28 11 15 1007.7 1005.8 5.8
27/05:30pm 24.0 24.3 17.0 65 4.4 ENE 11 15 6 8 1007.4 1005.6 5.8
27/05:00pm 23.1 23.1 17.3 70 3.6 ENE 13 15 7 8 1007.4 1005.6 5.8
27/04:30pm 23.0 22.4 17.5 71 3.5 ENE 17 22 9 12 1007.4 1005.6 5.8
27/04:00pm 23.2 23.8 17.6 71 3.5 E 11 13 6 7 1007.9 1006.0 5.8
27/03:30pm 22.5 23.4 18.5 78 2.5 ESE 11 15 6 8 1008.0 1006.1 5.8
27/03:00pm 21.0 21.2 17.6 81 2.1 NNW 13 20 7 11 1008.7 1006.8 5.6
27/02:30pm 22.6 21.5 17.3 72 3.3 ENE 19 24 10 13 1008.7 1006.8 2.0
27/02:00pm 22.4 20.0 17.3 73 3.2 E 26 33 14 18 1008.8 1006.9 1.6
27/01:30pm 22.6 20.9 17.1 71 3.4 E 22 33 12 18 1009.1 1007.2 1.2
27/01:00pm 25.4 24.4 16.5 58 5.6 E 17 30 9 16 1009.4 1007.5 0.0
27/12:30pm 26.0 25.3 17.4 59 5.4 ENE 17 22 9 12 1009.7 1007.9 0.0
27/12:00pm 25.2 24.2 16.6 59 5.4 NE 17 26 9 14 1010.1 1008.3 0.0
27/11:30am 25.4 25.0 16.3 57 5.7 E 13 26 7 14 1010.1 1008.3 0.0
27/11:00am 25.4 24.4 16.5 58 5.6 E 17 26 9 14 1010.2 1008.4 0.0
27/10:30am 25.4 24.4 16.5 58 5.6 ENE 17 28 9 15 1010.4 1008.6 0.0
27/10:00am 24.0 22.5 16.3 62 4.8 E 19 26 10 14 1010.9 1009.0 0.0
27/09:30am 22.2 21.5 16.5 70 3.5 E 15 20 8 11 1011.2 1009.3 0.0
27/09:00am 22.0 20.2 15.6 67 3.9 ENE 19 28 10 15 1011.3 1009.4 0.0
27/08:30am 21.8 20.5 15.9 69 3.6 E 17 22 9 12 1011.1 1009.2 0.0
27/08:00am 20.5 19.8 15.5 73 3.0 E 13 15 7 8 1011.0 1009.1 0.0
27/07:30am 19.8 19.9 15.4 76 2.6 ESE 9 11 5 6 1011.0 1009.1 0.0
27/07:00am 19.4 19.4 15.3 77 2.5 ESE 9 13 5 7 1010.6 1008.8 0.0
27/06:30am 19.4 19.8 15.3 77 2.4 ENE 7 11 4 6 1010.2 1008.4 0.0
27/06:00am 19.7 19.3 15.1 75 2.7 E 11 17 6 9 1009.8 1008.0 0.0
27/05:30am 19.4 17.8 15.1 76 2.6 E 17 22 9 12 1009.6 1007.7 0.0
27/05:00am 19.6 19.5 15.0 75 2.7 NE 9 15 5 8 1010.0 1008.2 0.0
27/04:30am 19.2 19.9 14.5 74 2.8 NE 4 7 2 4 1009.9 1008.1 0.0
27/04:00am 19.1 19.4 14.4 74 2.8 NNE 6 15 3 8 1010.0 1008.2 0.0
27/03:30am 19.0 18.9 13.8 72 3.0 ENE 7 9 4 5 1010.3 1008.5 0.0
27/03:00am 18.9 17.6 13.7 72 3.0 ENE 13 17 7 9 1010.3 1008.5 0.0
27/02:30am 19.8 19.8 13.7 68 3.6 N 6 11 3 6 1010.8 1008.9 0.0
27/02:00am 20.2 18.2 13.9 67 3.7 NE 17 22 9 12 1010.9 1009.0 0.0
27/01:30am 20.7 18.1 13.9 65 4.0 ENE 20 30 11 16 1011.2 1009.3 0.0
27/01:00am 20.8 18.5 14.0 65 4.0 ENE 19 28 10 15 1011.4 1009.5 0.0
27/12:30am 21.0 19.1 14.2 65 4.0 NE 17 22 9 12 1011.5 1009.6 0.0
27/12:00am 20.5 17.9 13.9 66 3.9 NE 20 30 11 16 1011.5 1009.6 0.0
 
Date/Time
EDT
Temp
°C
App
Temp
°C
Dew
Point
Rel
Hum
%
Delta-T
°C
Wind Press
QNH
hPa
Press
MSL
hPa
Rain
since 9 am
mm
Dir
 
Spd
km/h
Gust
km/h
Spd
kts
Gust
kts
26/11:30pm 20.7 18.8 14.1 66 3.9 NNE 17 22 9 12 1011.6 1009.7 0.0
26/11:00pm 21.1 18.6 14.0 64 4.2 NE 20 32 11 17 1011.6 1009.7 0.0
26/10:30pm 21.5 19.0 14.2 63 4.3 NE 20 30 11 16 1011.5 1009.6 0.0
26/10:00pm 21.9 19.7 14.3 62 4.5 NE 19 28 10 15 1011.5 1009.6 0.0
26/09:30pm 22.6 18.7 14.4 60 4.9 ENE 28 39 15 21 1011.2 1009.3 0.0
26/09:00pm 23.5 21.4 14.8 58 5.2 ENE 19 24 10 13 1010.6 1008.8 0.0
26/08:45pm 24.2 20.9 15.1 56 5.5 NE 26 39 14 21 1010.2 1008.4 0.0
26/08:30pm 23.4 20.0 1.7 24 10.4 SSW 9 13 5 7 1009.8 1008.0 0.0
26/08:00pm 26.6 21.3 -0.4 17 12.7 SW 17 20 9 11 1009.0 1007.1 0.0
26/07:30pm 28.3 22.6 -0.8 15 13.7 SW 19 24 10 13 1008.6 1006.7 0.0
26/07:00pm 29.4 23.1 -0.9 14 14.4 WSW 22 28 12 15 1008.3 1006.4 0.0
26/06:30pm 30.4 25.3 0.9 15 14.6 SW 17 24 9 13 1008.0 1006.1 0.0
26/06:00pm 30.5 25.1 1.0 15 14.6 WSW 19 28 10 15 1008.0 1006.1 0.0
26/05:30pm 31.3 26.3 3.4 17 14.4 WSW 19 28 10 15 1008.0 1006.1 0.0
26/05:00pm 30.7 26.3 2.9 17 14.3 W 15 24 8 13 1008.2 1006.3 0.0
26/04:30pm 30.6 25.5 2.8 17 14.2 WSW 19 26 10 14 1008.5 1006.6 0.0
26/04:00pm 31.7 27.4 5.3 19 14.2 WSW 17 28 9 15 1008.8 1006.9 0.0
26/03:30pm 30.5 25.5 3.5 18 13.9 W 19 35 10 19 1009.1 1007.2 0.0
26/03:00pm 31.2 26.4 5.6 20 13.8 WSW 20 30 11 16 1009.3 1007.4 0.0
26/02:30pm 31.2 26.7 6.3 21 13.5 WSW 19 30 10 16 1009.5 1007.6 0.0
26/02:00pm 29.2 26.2 6.0 23 12.4 W 11 22 6 12 1009.9 1008.1 0.0
26/01:30pm 28.6 26.1 6.7 25 11.8 SW 9 22 5 12 1010.4 1008.6 0.0
26/01:00pm 28.7 26.6 6.7 25 11.9 WSW 7 19 4 10 1010.6 1008.8 0.0
26/12:30pm 27.9 23.8 6.1 25 11.6 SW 17 26 9 14 1011.1 1009.2 0.0
26/12:00pm 27.5 23.3 5.7 25 11.5 SW 17 30 9 16 1011.2 1009.3 0.0
26/11:30am 27.6 23.3 5.2 24 11.7 SSW 17 24 9 13 1011.2 1009.3 0.0
26/11:00am 26.5 22.1 4.9 25 11.2 SSW 17 24 9 13 1011.3 1009.4 0.0
26/10:30am 25.3 21.1 5.5 28 10.3 SW 17 22 9 12 1011.5 1009.6 0.0
26/10:00am 24.5 21.5 5.8 30 9.7 S 11 17 6 9 1011.8 1009.9 0.0
26/09:30am 22.9 19.5 5.8 33 8.8 SSW 13 20 7 11 1012.1 1010.2 0.0
26/09:00am 20.4 16.8 6.7 41 7.0 WSW 15 19 8 10 1012.2 1010.3 0.0
26/08:30am 18.5 16.0 6.4 45 6.1 WSW 9 11 5 6 1012.2 1010.3 0.0
26/08:00am 16.4 14.3 5.7 49 5.3 SSW 6 7 3 4 1011.9 1010.0 0.0
26/07:30am 14.7 12.9 7.3 61 3.7 WSW 6 9 3 5 1011.6 1009.7 0.0
26/07:00am 12.3 10.5 8.0 75 2.2 E 7 9 4 5 1011.5 1009.6 0.0
26/06:30am 10.9 9.3 6.5 74 2.1 E 4 11 2 6 1011.1 1009.2 0.0
26/06:00am 12.3 10.0 5.9 65 3.1 SW 7 11 4 6 1010.6 1008.8 0.0
26/05:30am 11.8 9.4 5.2 64 3.1 SSE 7 11 4 6 1010.3 1008.5 0.0
26/05:00am 14.5 12.3 5.3 54 4.4 S 6 7 3 4 1010.4 1008.6 0.0
26/04:30am 11.9 11.0 6.2 68 2.7 CALM 0 0 0 0 1010.1 1008.3 0.0
26/04:00am 12.9 10.2 5.6 61 3.5 SSW 9 11 5 6 1010.2 1008.4 0.0
26/03:30am 13.9 12.2 5.8 58 3.9 E 4 7 2 4 1010.1 1008.3 0.0
26/03:00am 13.8 11.7 5.7 58 3.9 ESE 6 9 3 5 1010.1 1008.3 0.0
26/02:30am 16.3 13.2 5.6 49 5.2 SW 11 15 6 8 1010.2 1008.4 0.0
26/02:00am 15.6 15.0 7.4 58 4.1 CALM 0 4 0 2 1010.4 1008.6 0.0
26/01:30am 16.2 15.0 6.6 53 4.8 S 2 7 1 4 1010.5 1008.7 0.0
26/01:00am 18.4 15.8 5.9 44 6.3 S 9 11 5 6 1010.1 1008.3 0.0
26/12:30am 17.8 15.0 7.0 49 5.5 SW 11 15 6 8 1010.0 1008.2 0.0
26/12:00am 17.9 14.9 7.6 51 5.3 SSW 13 15 7 8 1010.0 1008.2 0.0
 
Date/Time
EDT
Temp
°C
App
Temp
°C
Dew
Point
Rel
Hum
%
Delta-T
°C
Wind Press
QNH
hPa
Press
MSL
hPa
Rain
since 9 am
mm
Dir
 
Spd
km/h
Gust
km/h
Spd
kts
Gust
kts
25/11:30pm 18.9 15.5 7.7 48 5.8 SSW 15 15 8 8 1009.9 1008.1 0.0
25/11:00pm 20.1 18.0 8.4 47 6.2 SSW 9 13 5 7 1009.9 1008.1 0.0
25/10:30pm 21.8 19.7 9.7 46 6.6 S 11 11 6 6 1009.8 1008.0 0.0
25/10:00pm 22.3 20.2 9.8 45 6.9 SSW 11 13 6 7 1009.5 1007.6 0.0
25/09:30pm 22.8 19.9 9.6 43 7.3 SSW 15 17 8 9 1008.9 1007.0 0.0
25/09:00pm 24.2 21.4 10.1 41 7.9 SSW 15 19 8 10 1008.5 1006.6 0.0
25/08:30pm 25.2 22.6 9.5 37 8.7 SSW 13 17 7 9 1008.3 1006.4 0.0
25/08:00pm 27.2 23.3 9.5 33 10.0 SSW 20 26 11 14 1008.0 1006.1 0.0
25/07:30pm 28.4 24.2 9.6 31 10.6 SSW 22 32 12 17 1007.8 1005.9 0.0
25/07:00pm 29.6 25.0 9.7 29 11.4 SW 24 32 13 17 1007.4 1005.6 0.0
25/06:30pm 29.9 24.9 9.4 28 11.6 SW 26 39 14 21 1007.1 1005.3 0.0
25/06:00pm 30.1 25.1 9.6 28 11.7 SW 26 39 14 21 1006.6 1004.7 0.0
25/05:30pm 30.9 25.9 9.7 27 12.1 SW 26 41 14 22 1006.6 1004.7 0.0
25/05:00pm 30.8 24.7 9.6 27 12.2 WSW 32 39 17 21 1006.5 1004.6 0.0
25/04:30pm 31.4 26.3 10.7 28 12.1 SW 28 41 15 22 1006.4 1004.5 0.0
25/04:00pm 31.4 27.1 10.7 28 12.1 SW 24 39 13 21 1006.5 1004.6 0.0
25/03:30pm 31.3 26.8 10.1 27 12.2 SW 24 39 13 21 1006.5 1004.6 0.0
25/03:00pm 31.3 26.1 10.1 27 12.3 SW 28 41 15 22 1006.5 1004.6 0.0
25/02:30pm 30.6 26.0 9.5 27 12.0 SW 24 39 13 21 1006.4 1004.5 0.0
25/02:00pm 30.8 26.2 9.6 27 12.2 WSW 24 35 13 19 1006.6 1004.7 0.0
25/01:30pm 30.0 25.7 9.5 28 11.7 SW 22 35 12 19 1006.6 1004.7 0.0
25/01:00pm 29.7 25.5 9.8 29 11.4 SW 22 33 12 18 1006.8 1004.9 0.0
25/12:30pm 29.2 25.3 12.2 35 10.1 SW 24 33 13 18 1006.9 1005.1 0.0
25/12:00pm 28.5 27.3 17.4 51 7.1 SW 20 32 11 17 1006.8 1004.9 0.0
25/11:30am 28.1 26.5 16.4 49 7.4 WSW 20 30 11 16 1007.1 1005.3 0.0
25/11:00am 27.5 27.5 17.1 53 6.6 W 13 20 7 11 1006.9 1005.1 0.0
25/10:30am 26.7 26.2 16.9 55 6.2 WSW 15 24 8 13 1007.0 1005.2 0.0
25/10:00am 26.5 26.4 17.8 58 5.6 WSW 15 24 8 13 1007.1 1005.3 0.0
25/09:30am 25.9 24.7 17.0 58 5.6 WSW 19 28 10 15 1007.2 1005.4 0.0
25/09:00am 25.8 25.1 17.4 59 5.3 WNW 17 26 9 14 1007.2 1005.4 0.0
25/08:30am 24.4 25.3 18.3 69 3.9 NNW 11 15 6 8 1007.0 1005.2 0.0
25/08:00am 22.4 23.4 17.8 75 2.9 N 9 11 5 6 1006.7 1004.8 0.0
25/07:30am 21.1 22.8 17.1 78 2.5 NE 4 7 2 4 1006.4 1004.5 0.0
25/07:00am 19.6 21.1 17.6 88 1.2 NE 6 7 3 4 1006.0 1004.1 0.0
25/06:30am 19.1 19.6 17.4 90 1.1 NE 11 13 6 7 1005.8 1003.9 0.0
25/06:00am 19.4 20.2 17.2 87 1.4 NNE 9 13 5 7 1005.7 1003.8 0.0
25/05:30am 19.6 22.0 17.0 85 1.6 CALM 0 0 0 0 1005.8 1003.9 0.0
25/05:00am 20.3 22.2 17.7 85 1.6 NNE 4 9 2 5 1005.3 1003.4 0.0
25/04:30am 19.5 20.7 17.3 87 1.4 ENE 7 9 4 5 1005.1 1003.2 0.0
25/04:00am 20.1 21.9 17.5 85 1.6 NE 4 7 2 4 1005.2 1003.3 0.0
25/03:30am 20.2 21.3 17.2 83 1.9 ENE 7 9 4 5 1005.5 1003.6 0.0
25/03:00am 20.5 21.6 17.1 81 2.1 NNE 7 11 4 6 1005.7 1003.8 0.0
25/02:30am 21.4 22.4 17.8 80 2.3 NNE 9 11 5 6 1005.7 1003.8 0.0
25/02:00am 21.5 22.6 17.9 80 2.3 NE 9 11 5 6 1005.6 1003.7 0.0
25/01:30am 21.9 23.0 18.1 79 2.4 NE 9 11 5 6 1005.9 1004.0 0.0
25/01:00am 22.3 22.5 17.7 75 2.9 NNE 13 17 7 9 1006.2 1004.3 0.0
25/12:30am 22.5 22.8 17.8 75 3.0 N 13 17 7 9 1006.5 1004.6 0.0
25/12:00am 23.1 22.5 17.6 71 3.5 NE 17 22 9 12 1006.6 1004.7 0.0
 
Date/Time
EDT
Temp
°C
App
Temp
°C
Dew
Point
Rel
Hum
%
Delta-T
°C
Wind Press
QNH
hPa
Press
MSL
hPa
Rain
since 9 am
mm
Dir
 
Spd
km/h
Gust
km/h
Spd
kts
Gust
kts
24/11:30pm 23.3 22.1 17.5 70 3.6 NE 20 24 11 13 1006.4 1004.5 0.0
24/11:00pm 23.7 23.0 17.4 68 4.0 NE 17 26 9 14 1006.7 1004.8 0.0
24/10:30pm 23.5 23.8 17.9 71 3.5 NNE 13 15 7 8 1006.8 1004.9 0.0
24/10:00pm 23.5 24.8 18.4 73 3.3 N 9 11 5 6 1006.8 1004.9 0.0
24/09:30pm 23.6 24.5 18.3 72 3.4 ENE 11 15 6 8 1006.3 1004.4 0.0

Other Formats:

Comma delimited format used in spreadsheet applications
http://www.bom.gov.au/fwo/IDN60801/IDN60801.95717.axf

JavaScript Object Notation format (JSON) in row-major order
http://www.bom.gov.au/fwo/IDN60801/IDN60801.95717.json